Argonne, Minnesota
Current Conditions -  °F | °C
As of 5:44 AM on Friday 19 Dec 2014 (Local Time) from KLVN Reporting Station
Overcast Overcast  
Wind Chill: -6°   Ceiling: 3300
Heat Index: -6°   Visibility: 7mi
Dew Point: -7°   Wind: 3mph
Humidity: 93%   Direction: 150°SSE
Pressure: 30.24"   Gusts: NA
Location:  44.6349°N, 93.283°W
Report Text: KLVN 191144Z AUTO 15003KT 7SM BKN033 OVC048 M06/M07 A3024 RMK AO2
Loading
Personal Weather Stations






























Interactive Weather Map New forecast layout! Learn more

10-Day Weather Forecast

Advertisements
Track Severe Weather on mobile